sensor_id;sensor_type;location;lat;lon;timestamp;temperature;humidity
11423;DHT22;5768;51.476;7.210;2024-01-15T00:01:42;2.40;1.40
11423;DHT22;5768;51.476;7.210;2024-01-15T00:06:45;2.40;1.40
11423;DHT22;5768;51.476;7.210;2024-01-15T00:11:48;2.50;1.40
11423;DHT22;5768;51.476;7.210;2024-01-15T00:16:51;2.50;1.40
11423;DHT22;5768;51.476;7.210;2024-01-15T00:21:55;2.30;1.40
11423;DHT22;5768;51.476;7.210;2024-01-15T00:26:59;2.40;1.40
11423;DHT22;5768;51.476;7.210;2024-01-15T00:32:01;2.50;1.40
11423;DHT22;5768;51.476;7.210;2024-01-15T00:37:04;2.40;1.40
11423;DHT22;5768;51.476;7.210;2024-01-15T00:42:08;2.40;1.40
11423;DHT22;5768;51.476;7.210;2024-01-15T00:47:10;2.40;1.40
11423;DHT22;5768;51.476;7.210;2024-01-15T00:52:12;2.80;1.40
11423;DHT22;5768;51.476;7.210;2024-01-15T00:57:16;2.70;1.40
11423;DHT22;5768;51.476;7.210;2024-01-15T01:02:19;2.70;1.40
11423;DHT22;5768;51.476;7.210;2024-01-15T01:07:22;2.60;1.40
11423;DHT22;5768;51.476;7.210;2024-01-15T01:12:25;2.60;1.40
11423;DHT22;5768;51.476;7.210;2024-01-15T01:17:28;2.80;1.40
11423;DHT22;5768;51.476;7.210;2024-01-15T01:22:31;2.70;1.40
11423;DHT22;5768;51.476;7.210;2024-01-15T01:27:35;2.60;1.40
11423;DHT22;5768;51.476;7.210;2024-01-15T01:32:37;2.60;1.40
11423;DHT22;5768;51.476;7.210;2024-01-15T01:37:39;2.80;1.40
11423;DHT22;5768;51.476;7.210;2024-01-15T01:42:47;2.80;1.40
11423;DHT22;5768;51.476;7.210;2024-01-15T01:47:50;2.80;1.40
11423;DHT22;5768;51.476;7.210;2024-01-15T01:52:52;2.80;1.40
11423;DHT22;5768;51.476;7.210;2024-01-15T01:57:57;2.70;1.40
11423;DHT22;5768;51.476;7.210;2024-01-15T02:02:59;2.60;1.40
11423;DHT22;5768;51.476;7.210;2024-01-15T02:08:04;2.80;1.40
11423;DHT22;5768;51.476;7.210;2024-01-15T02:13:08;2.40;1.40
11423;DHT22;5768;51.476;7.210;2024-01-15T02:18:10;2.70;1.40
11423;DHT22;5768;51.476;7.210;2024-01-15T02:23:15;2.70;1.40
11423;DHT22;5768;51.476;7.210;2024-01-15T02:28:18;2.60;1.40
11423;DHT22;5768;51.476;7.210;2024-01-15T02:33:20;2.50;1.40
11423;DHT22;5768;51.476;7.210;2024-01-15T02:38:23;2.50;1.40
11423;DHT22;5768;51.476;7.210;2024-01-15T02:43:26;2.60;1.40
11423;DHT22;5768;51.476;7.210;2024-01-15T02:48:28;2.60;1.40
11423;DHT22;5768;51.476;7.210;2024-01-15T02:53:32;2.50;1.40
11423;DHT22;5768;51.476;7.210;2024-01-15T02:58:34;2.30;1.40
11423;DHT22;5768;51.476;7.210;2024-01-15T03:03:36;2.40;1.40
11423;DHT22;5768;51.476;7.210;2024-01-15T03:08:40;2.40;1.40
11423;DHT22;5768;51.476;7.210;2024-01-15T03:13:42;2.50;1.40
11423;DHT22;5768;51.476;7.210;2024-01-15T03:18:44;2.30;1.40
11423;DHT22;5768;51.476;7.210;2024-01-15T03:23:48;2.40;1.40
11423;DHT22;5768;51.476;7.210;2024-01-15T03:28:50;2.30;1.40
11423;DHT22;5768;51.476;7.210;2024-01-15T03:33:53;2.50;1.40
11423;DHT22;5768;51.476;7.210;2024-01-15T03:38:59;2.60;1.40
11423;DHT22;5768;51.476;7.210;2024-01-15T03:44:01;2.60;1.40
11423;DHT22;5768;51.476;7.210;2024-01-15T03:49:07;2.60;1.40
11423;DHT22;5768;51.476;7.210;2024-01-15T03:54:11;2.50;1.40
11423;DHT22;5768;51.476;7.210;2024-01-15T03:59:15;2.70;1.40
11423;DHT22;5768;51.476;7.210;2024-01-15T04:04:18;2.60;1.40
11423;DHT22;5768;51.476;7.210;2024-01-15T04:09:22;2.70;1.40
11423;DHT22;5768;51.476;7.210;2024-01-15T04:14:24;2.80;1.40
11423;DHT22;5768;51.476;7.210;2024-01-15T04:19:27;2.70;1.40
11423;DHT22;5768;51.476;7.210;2024-01-15T04:24:33;2.60;1.40
11423;DHT22;5768;51.476;7.210;2024-01-15T04:29:37;2.80;1.40
11423;DHT22;5768;51.476;7.210;2024-01-15T04:34:42;2.90;1.40
11423;DHT22;5768;51.476;7.210;2024-01-15T04:39:46;2.80;1.40
11423;DHT22;5768;51.476;7.210;2024-01-15T04:44:48;2.70;1.40
11423;DHT22;5768;51.476;7.210;2024-01-15T04:49:50;3.00;1.40
11423;DHT22;5768;51.476;7.210;2024-01-15T04:54:54;3.00;1.40
11423;DHT22;5768;51.476;7.210;2024-01-15T04:59:56;3.00;1.40
11423;DHT22;5768;51.476;7.210;2024-01-15T05:05:00;2.90;1.40
11423;DHT22;5768;51.476;7.210;2024-01-15T05:10:05;2.90;1.40
11423;DHT22;5768;51.476;7.210;2024-01-15T05:15:09;2.90;1.40
11423;DHT22;5768;51.476;7.210;2024-01-15T05:20:11;2.80;1.40
11423;DHT22;5768;51.476;7.210;2024-01-15T05:25:15;3.00;1.40
11423;DHT22;5768;51.476;7.210;2024-01-15T05:30:17;2.80;1.40
11423;DHT22;5768;51.476;7.210;2024-01-15T05:35:21;2.80;1.40
11423;DHT22;5768;51.476;7.210;2024-01-15T05:40:24;2.70;1.40
11423;DHT22;5768;51.476;7.210;2024-01-15T05:45:27;2.60;1.40
11423;DHT22;5768;51.476;7.210;2024-01-15T05:50:29;2.80;1.40
11423;DHT22;5768;51.476;7.210;2024-01-15T05:55:32;2.80;1.40
11423;DHT22;5768;51.476;7.210;2024-01-15T06:00:35;2.90;1.40
11423;DHT22;5768;51.476;7.210;2024-01-15T06:05:38;2.70;1.40
11423;DHT22;5768;51.476;7.210;2024-01-15T06:10:42;2.70;1.40
11423;DHT22;5768;51.476;7.210;2024-01-15T06:15:48;2.80;1.40
11423;DHT22;5768;51.476;7.210;2024-01-15T06:20:50;2.60;1.40
11423;DHT22;5768;51.476;7.210;2024-01-15T06:25:53;2.60;1.40
11423;DHT22;5768;51.476;7.210;2024-01-15T06:30:56;2.70;1.40
11423;DHT22;5768;51.476;7.210;2024-01-15T06:35:59;2.60;1.40
11423;DHT22;5768;51.476;7.210;2024-01-15T06:41:03;2.60;1.40
11423;DHT22;5768;51.476;7.210;2024-01-15T06:46:05;2.70;1.40
11423;DHT22;5768;51.476;7.210;2024-01-15T06:51:07;2.70;1.40
11423;DHT22;5768;51.476;7.210;2024-01-15T06:56:11;2.60;1.40
11423;DHT22;5768;51.476;7.210;2024-01-15T07:01:13;2.80;1.40
11423;DHT22;5768;51.476;7.210;2024-01-15T07:06:15;2.70;1.40
11423;DHT22;5768;51.476;7.210;2024-01-15T07:11:19;2.70;1.40
11423;DHT22;5768;51.476;7.210;2024-01-15T07:16:21;2.70;1.40
11423;DHT22;5768;51.476;7.210;2024-01-15T07:21:23;2.80;1.40
11423;DHT22;5768;51.476;7.210;2024-01-15T07:26:27;3.00;1.40
11423;DHT22;5768;51.476;7.210;2024-01-15T07:31:29;2.80;1.40
11423;DHT22;5768;51.476;7.210;2024-01-15T07:36:31;3.00;1.40
11423;DHT22;5768;51.476;7.210;2024-01-15T07:41:35;3.00;1.40
11423;DHT22;5768;51.476;7.210;2024-01-15T07:46:37;2.80;1.40
11423;DHT22;5768;51.476;7.210;2024-01-15T07:51:40;2.80;1.40
11423;DHT22;5768;51.476;7.210;2024-01-15T07:56:55;2.90;1.40
11423;DHT22;5768;51.476;7.210;2024-01-15T08:01:59;2.90;1.40
11423;DHT22;5768;51.476;7.210;2024-01-15T08:07:03;3.00;1.40
11423;DHT22;5768;51.476;7.210;2024-01-15T08:12:08;2.90;1.40
11423;DHT22;5768;51.476;7.210;2024-01-15T08:17:13;2.90;1.40
11423;DHT22;5768;51.476;7.210;2024-01-15T08:22:16;3.10;1.40
11423;DHT22;5768;51.476;7.210;2024-01-15T08:27:20;2.90;1.40
11423;DHT22;5768;51.476;7.210;2024-01-15T08:32:22;3.00;1.40
11423;DHT22;5768;51.476;7.210;2024-01-15T08:37:24;3.10;1.40
11423;DHT22;5768;51.476;7.210;2024-01-15T08:42:28;3.00;1.40
11423;DHT22;5768;51.476;7.210;2024-01-15T08:47:30;2.70;1.40
11423;DHT22;5768;51.476;7.210;2024-01-15T08:52:38;2.80;1.40
11423;DHT22;5768;51.476;7.210;2024-01-15T08:57:41;2.60;1.40
11423;DHT22;5768;51.476;7.210;2024-01-15T09:02:44;2.30;1.40
11423;DHT22;5768;51.476;7.210;2024-01-15T09:07:46;2.40;1.40
11423;DHT22;5768;51.476;7.210;2024-01-15T09:12:50;2.40;1.40
11423;DHT22;5768;51.476;7.210;2024-01-15T09:17:52;2.40;1.40
11423;DHT22;5768;51.476;7.210;2024-01-15T09:22:54;2.60;1.40
11423;DHT22;5768;51.476;7.210;2024-01-15T09:27:58;2.70;1.40
11423;DHT22;5768;51.476;7.210;2024-01-15T09:33:00;2.70;1.40
11423;DHT22;5768;51.476;7.210;2024-01-15T09:38:02;2.50;1.40
11423;DHT22;5768;51.476;7.210;2024-01-15T09:43:07;2.30;1.40
11423;DHT22;5768;51.476;7.210;2024-01-15T09:48:10;2.30;1.40
11423;DHT22;5768;51.476;7.210;2024-01-15T09:53:24;2.40;1.40
11423;DHT22;5768;51.476;7.210;2024-01-15T09:58:28;2.40;1.40
11423;DHT22;5768;51.476;7.210;2024-01-15T10:03:31;2.60;1.40
11423;DHT22;5768;51.476;7.210;2024-01-15T10:08:48;2.50;1.40
11423;DHT22;5768;51.476;7.210;2024-01-15T10:13:52;2.40;1.40
11423;DHT22;5768;51.476;7.210;2024-01-15T10:18:55;2.80;99.90
11423;DHT22;5768;51.476;7.210;2024-01-15T10:24:00;2.90;99.90
11423;DHT22;5768;51.476;7.210;2024-01-15T10:29:05;3.00;99.90
11423;DHT22;5768;51.476;7.210;2024-01-15T10:34:11;2.80;99.90
11423;DHT22;5768;51.476;7.210;2024-01-15T10:39:16;2.80;1.40
11423;DHT22;5768;51.476;7.210;2024-01-15T10:44:19;2.80;99.90
11423;DHT22;5768;51.476;7.210;2024-01-15T10:49:21;2.80;99.90
11423;DHT22;5768;51.476;7.210;2024-01-15T10:54:27;2.90;99.90
11423;DHT22;5768;51.476;7.210;2024-01-15T10:59:32;3.00;99.90
11423;DHT22;5768;51.476;7.210;2024-01-15T11:04:34;3.00;1.40
11423;DHT22;5768;51.476;7.210;2024-01-15T11:09:37;2.80;99.90
11423;DHT22;5768;51.476;7.210;2024-01-15T11:14:51;3.00;99.90
11423;DHT22;5768;51.476;7.210;2024-01-15T11:20:06;2.90;99.90
11423;DHT22;5768;51.476;7.210;2024-01-15T11:25:13;3.30;99.90
11423;DHT22;5768;51.476;7.210;2024-01-15T11:30:25;3.90;99.90
11423;DHT22;5768;51.476;7.210;2024-01-15T11:35:48;3.40;99.90
11423;DHT22;5768;51.476;7.210;2024-01-15T11:40:51;3.10;99.90
11423;DHT22;5768;51.476;7.210;2024-01-15T11:45:56;3.20;99.90
11423;DHT22;5768;51.476;7.210;2024-01-15T11:50:59;3.50;1.40
11423;DHT22;5768;51.476;7.210;2024-01-15T11:56:08;3.80;1.40
11423;DHT22;5768;51.476;7.210;2024-01-15T12:01:16;3.50;99.90
11423;DHT22;5768;51.476;7.210;2024-01-15T12:06:18;3.50;99.90
11423;DHT22;5768;51.476;7.210;2024-01-15T12:11:21;3.50;99.90
11423;DHT22;5768;51.476;7.210;2024-01-15T12:16:27;3.40;99.90
11423;DHT22;5768;51.476;7.210;2024-01-15T12:21:31;3.50;99.90
11423;DHT22;5768;51.476;7.210;2024-01-15T12:26:34;3.60;99.90
11423;DHT22;5768;51.476;7.210;2024-01-15T12:31:37;3.20;1.40
11423;DHT22;5768;51.476;7.210;2024-01-15T12:36:40;3.20;99.90
11423;DHT22;5768;51.476;7.210;2024-01-15T12:41:42;3.20;99.90
11423;DHT22;5768;51.476;7.210;2024-01-15T12:46:47;2.90;99.90
11423;DHT22;5768;51.476;7.210;2024-01-15T12:51:52;3.30;99.90
11423;DHT22;5768;51.476;7.210;2024-01-15T12:56:55;3.10;99.90
11423;DHT22;5768;51.476;7.210;2024-01-15T13:01:58;3.00;99.90
11423;DHT22;5768;51.476;7.210;2024-01-15T13:07:01;3.10;99.90
11423;DHT22;5768;51.476;7.210;2024-01-15T13:12:04;3.30;99.90
11423;DHT22;5768;51.476;7.210;2024-01-15T13:17:08;3.30;99.90
11423;DHT22;5768;51.476;7.210;2024-01-15T13:22:15;3.50;99.90
11423;DHT22;5768;51.476;7.210;2024-01-15T13:27:17;3.70;99.90
11423;DHT22;5768;51.476;7.210;2024-01-15T13:32:24;4.10;99.90
11423;DHT22;5768;51.476;7.210;2024-01-15T13:37:27;4.00;99.90
11423;DHT22;5768;51.476;7.210;2024-01-15T13:42:29;4.00;99.90
11423;DHT22;5768;51.476;7.210;2024-01-15T13:47:33;4.10;1.40
11423;DHT22;5768;51.476;7.210;2024-01-15T13:52:41;4.20;99.90
11423;DHT22;5768;51.476;7.210;2024-01-15T13:57:46;4.20;99.90
11423;DHT22;5768;51.476;7.210;2024-01-15T14:02:49;4.20;99.90
11423;DHT22;5768;51.476;7.210;2024-01-15T14:07:51;4.10;1.40
11423;DHT22;5768;51.476;7.210;2024-01-15T14:12:53;3.70;99.90
11423;DHT22;5768;51.476;7.210;2024-01-15T14:17:57;3.50;99.90
11423;DHT22;5768;51.476;7.210;2024-01-15T14:23:00;3.50;99.90
11423;DHT22;5768;51.476;7.210;2024-01-15T14:28:02;3.40;99.90
11423;DHT22;5768;51.476;7.210;2024-01-15T14:33:06;3.10;1.40
11423;DHT22;5768;51.476;7.210;2024-01-15T14:38:08;3.20;1.40
11423;DHT22;5768;51.476;7.210;2024-01-15T14:43:11;3.30;99.90
11423;DHT22;5768;51.476;7.210;2024-01-15T14:48:15;2.90;99.90
11423;DHT22;5768;51.476;7.210;2024-01-15T14:53:17;3.00;1.40
11423;DHT22;5768;51.476;7.210;2024-01-15T14:58:19;2.90;99.90
11423;DHT22;5768;51.476;7.210;2024-01-15T15:03:22;3.00;99.90
11423;DHT22;5768;51.476;7.210;2024-01-15T15:08:25;3.00;1.40
11423;DHT22;5768;51.476;7.210;2024-01-15T15:13:27;2.90;99.90
11423;DHT22;5768;51.476;7.210;2024-01-15T15:18:31;2.90;99.90
11423;DHT22;5768;51.476;7.210;2024-01-15T15:23:33;3.10;1.40
11423;DHT22;5768;51.476;7.210;2024-01-15T15:28:35;3.20;99.90
11423;DHT22;5768;51.476;7.210;2024-01-15T15:33:42;3.20;99.90
11423;DHT22;5768;51.476;7.210;2024-01-15T15:38:45;2.90;1.40
11423;DHT22;5768;51.476;7.210;2024-01-15T15:43:48;3.00;99.90
11423;DHT22;5768;51.476;7.210;2024-01-15T15:48:52;3.00;99.90
11423;DHT22;5768;51.476;7.210;2024-01-15T15:53:54;2.80;1.40
11423;DHT22;5768;51.476;7.210;2024-01-15T15:58:57;2.90;1.40
11423;DHT22;5768;51.476;7.210;2024-01-15T16:04:00;3.10;99.90
11423;DHT22;5768;51.476;7.210;2024-01-15T16:09:04;2.80;99.90
11423;DHT22;5768;51.476;7.210;2024-01-15T16:14:07;2.70;99.90
11423;DHT22;5768;51.476;7.210;2024-01-15T16:19:12;2.40;99.90
11423;DHT22;5768;51.476;7.210;2024-01-15T16:24:17;2.40;99.90
11423;DHT22;5768;51.476;7.210;2024-01-15T16:29:20;2.30;99.90
11423;DHT22;5768;51.476;7.210;2024-01-15T16:34:24;2.40;99.90
11423;DHT22;5768;51.476;7.210;2024-01-15T16:39:27;2.40;99.90
11423;DHT22;5768;51.476;7.210;2024-01-15T16:44:29;2.40;99.90
11423;DHT22;5768;51.476;7.210;2024-01-15T16:49:35;2.60;99.90
11423;DHT22;5768;51.476;7.210;2024-01-15T16:54:38;2.50;99.90
11423;DHT22;5768;51.476;7.210;2024-01-15T16:59:40;2.10;99.90
11423;DHT22;5768;51.476;7.210;2024-01-15T17:04:44;2.20;99.90
11423;DHT22;5768;51.476;7.210;2024-01-15T17:09:46;2.30;99.90
11423;DHT22;5768;51.476;7.210;2024-01-15T17:14:48;2.40;99.90
11423;DHT22;5768;51.476;7.210;2024-01-15T17:19:53;2.30;99.90
11423;DHT22;5768;51.476;7.210;2024-01-15T17:24:55;2.40;99.90
11423;DHT22;5768;51.476;7.210;2024-01-15T17:29:58;2.20;99.90
11423;DHT22;5768;51.476;7.210;2024-01-15T17:35:01;2.30;99.90
11423;DHT22;5768;51.476;7.210;2024-01-15T17:40:05;2.40;99.90
11423;DHT22;5768;51.476;7.210;2024-01-15T17:45:09;2.30;99.90
11423;DHT22;5768;51.476;7.210;2024-01-15T17:50:12;2.30;99.90
11423;DHT22;5768;51.476;7.210;2024-01-15T17:55:15;2.20;99.90
11423;DHT22;5768;51.476;7.210;2024-01-15T18:00:18;2.20;99.90
11423;DHT22;5768;51.476;7.210;2024-01-15T18:05:22;2.20;99.90
11423;DHT22;5768;51.476;7.210;2024-01-15T18:10:24;2.30;99.90
11423;DHT22;5768;51.476;7.210;2024-01-15T18:15:27;2.20;99.90
11423;DHT22;5768;51.476;7.210;2024-01-15T18:20:31;2.30;99.90
11423;DHT22;5768;51.476;7.210;2024-01-15T18:25:36;2.40;99.90
11423;DHT22;5768;51.476;7.210;2024-01-15T18:30:39;2.40;99.90
11423;DHT22;5768;51.476;7.210;2024-01-15T18:35:43;2.30;99.90
11423;DHT22;5768;51.476;7.210;2024-01-15T18:40:45;2.50;99.90
11423;DHT22;5768;51.476;7.210;2024-01-15T18:45:48;2.40;99.90
11423;DHT22;5768;51.476;7.210;2024-01-15T18:50:52;2.40;99.90
11423;DHT22;5768;51.476;7.210;2024-01-15T18:55:54;2.40;99.90
11423;DHT22;5768;51.476;7.210;2024-01-15T19:00:58;2.50;99.90
11423;DHT22;5768;51.476;7.210;2024-01-15T19:06:02;2.50;99.90
11423;DHT22;5768;51.476;7.210;2024-01-15T19:11:04;2.40;99.90
11423;DHT22;5768;51.476;7.210;2024-01-15T19:16:07;2.30;99.90
11423;DHT22;5768;51.476;7.210;2024-01-15T19:21:11;2.10;99.90
11423;DHT22;5768;51.476;7.210;2024-01-15T19:26:18;2.00;99.90
11423;DHT22;5768;51.476;7.210;2024-01-15T19:31:21;2.20;99.90
11423;DHT22;5768;51.476;7.210;2024-01-15T19:36:25;2.20;99.90
11423;DHT22;5768;51.476;7.210;2024-01-15T19:41:28;2.30;99.90
11423;DHT22;5768;51.476;7.210;2024-01-15T19:46:30;2.30;99.90
11423;DHT22;5768;51.476;7.210;2024-01-15T19:51:36;2.40;99.90
11423;DHT22;5768;51.476;7.210;2024-01-15T19:56:41;2.30;99.90
11423;DHT22;5768;51.476;7.210;2024-01-15T20:01:54;2.40;99.90
11423;DHT22;5768;51.476;7.210;2024-01-15T20:06:58;2.60;99.90
11423;DHT22;5768;51.476;7.210;2024-01-15T20:12:02;2.50;99.90
11423;DHT22;5768;51.476;7.210;2024-01-15T20:17:06;2.50;99.90
11423;DHT22;5768;51.476;7.210;2024-01-15T20:22:10;2.40;99.90
11423;DHT22;5768;51.476;7.210;2024-01-15T20:27:13;2.30;99.90
11423;DHT22;5768;51.476;7.210;2024-01-15T20:32:17;2.40;99.90
11423;DHT22;5768;51.476;7.210;2024-01-15T20:37:21;2.40;99.90
11423;DHT22;5768;51.476;7.210;2024-01-15T20:42:25;2.50;99.90
11423;DHT22;5768;51.476;7.210;2024-01-15T20:47:27;2.50;99.90
11423;DHT22;5768;51.476;7.210;2024-01-15T20:52:33;2.40;99.90
11423;DHT22;5768;51.476;7.210;2024-01-15T20:57:37;2.10;99.90
11423;DHT22;5768;51.476;7.210;2024-01-15T21:02:40;2.20;99.90
11423;DHT22;5768;51.476;7.210;2024-01-15T21:07:44;2.20;99.90
11423;DHT22;5768;51.476;7.210;2024-01-15T21:12:47;2.10;99.90
11423;DHT22;5768;51.476;7.210;2024-01-15T21:17:49;2.20;99.90
11423;DHT22;5768;51.476;7.210;2024-01-15T21:22:53;2.30;99.90
11423;DHT22;5768;51.476;7.210;2024-01-15T21:27:55;2.40;99.90
11423;DHT22;5768;51.476;7.210;2024-01-15T21:32:58;2.20;99.90
11423;DHT22;5768;51.476;7.210;2024-01-15T21:38:02;2.00;99.90
11423;DHT22;5768;51.476;7.210;2024-01-15T21:43:04;2.00;99.90
11423;DHT22;5768;51.476;7.210;2024-01-15T21:48:06;2.20;99.90
11423;DHT22;5768;51.476;7.210;2024-01-15T21:53:10;2.30;99.90
11423;DHT22;5768;51.476;7.210;2024-01-15T21:58:16;2.10;99.90
11423;DHT22;5768;51.476;7.210;2024-01-15T22:03:20;2.50;99.90
11423;DHT22;5768;51.476;7.210;2024-01-15T22:08:25;2.50;99.90
11423;DHT22;5768;51.476;7.210;2024-01-15T22:13:27;2.30;99.90
11423;DHT22;5768;51.476;7.210;2024-01-15T22:18:30;2.40;99.90
11423;DHT22;5768;51.476;7.210;2024-01-15T22:23:33;2.30;99.90
11423;DHT22;5768;51.476;7.210;2024-01-15T22:28:36;2.50;99.90
11423;DHT22;5768;51.476;7.210;2024-01-15T22:33:39;2.30;99.90
11423;DHT22;5768;51.476;7.210;2024-01-15T22:38:42;2.00;99.90
11423;DHT22;5768;51.476;7.210;2024-01-15T22:43:45;2.10;99.90
11423;DHT22;5768;51.476;7.210;2024-01-15T22:48:47;2.10;99.90
11423;DHT22;5768;51.476;7.210;2024-01-15T22:53:51;2.30;99.90
11423;DHT22;5768;51.476;7.210;2024-01-15T22:58:53;2.00;99.90
11423;DHT22;5768;51.476;7.210;2024-01-15T23:03:55;2.00;99.90
11423;DHT22;5768;51.476;7.210;2024-01-15T23:08:59;2.20;99.90
11423;DHT22;5768;51.476;7.210;2024-01-15T23:14:02;2.40;99.90
11423;DHT22;5768;51.476;7.210;2024-01-15T23:19:04;2.40;99.90
11423;DHT22;5768;51.476;7.210;2024-01-15T23:24:08;2.50;99.90
11423;DHT22;5768;51.476;7.210;2024-01-15T23:29:10;2.50;99.90
11423;DHT22;5768;51.476;7.210;2024-01-15T23:34:13;2.40;99.90
11423;DHT22;5768;51.476;7.210;2024-01-15T23:39:17;2.20;99.90
11423;DHT22;5768;51.476;7.210;2024-01-15T23:44:19;2.20;99.90
11423;DHT22;5768;51.476;7.210;2024-01-15T23:49:21;2.20;99.90
11423;DHT22;5768;51.476;7.210;2024-01-15T23:54:25;2.50;99.90
11423;DHT22;5768;51.476;7.210;2024-01-15T23:59:28;2.60;99.90
